createdAt,value
2023-01-20T00:00:31.600Z,100581.72
2023-01-20T00:01:36.263Z,100580.06
2023-01-20T00:02:38.238Z,100580.06
2023-01-20T00:03:41.819Z,100572.75
2023-01-20T00:04:43.799Z,100580.06
2023-01-20T00:05:52.567Z,100573.59
2023-01-20T00:06:54.874Z,100583.72
2023-01-20T00:07:56.705Z,100587.38
2023-01-20T00:09:00.760Z,100592.69
2023-01-20T00:10:02.663Z,100583.59
2023-01-20T00:11:09.106Z,100595.66
2023-01-20T00:12:10.983Z,100586.38
2023-01-20T00:13:13.059Z,100582.88
2023-01-20T00:14:14.913Z,100602.81
2023-01-20T00:15:16.757Z,100606.34
2023-01-20T00:16:18.552Z,100608.31
2023-01-20T00:17:20.348Z,100609.13
2023-01-20T00:18:22.257Z,100608.44
2023-01-20T00:19:24.159Z,100614.63
2023-01-20T00:20:26.206Z,100614.63
2023-01-20T00:21:28.318Z,100613.78
2023-01-20T00:22:30.329Z,100617.44
2023-01-20T00:23:32.998Z,100579.50
2023-01-20T00:24:34.892Z,100610.53
2023-01-20T00:25:37.028Z,100624.59
2023-01-20T00:26:38.899Z,100608.72
2023-01-20T00:27:40.708Z,100623.75
2023-01-20T00:28:43.751Z,100624.72
2023-01-20T00:29:46.770Z,100624.72
2023-01-20T00:30:48.580Z,100622.19
2023-01-20T00:31:50.361Z,100631.06
2023-01-20T00:32:52.326Z,100627.53
2023-01-20T00:33:56.874Z,100627.69
2023-01-20T00:34:58.716Z,100632.88
2023-01-20T00:36:01.311Z,100631.19
2023-01-20T00:37:03.119Z,100621.34
2023-01-20T00:38:04.892Z,100641.03
2023-01-20T00:39:06.790Z,100634.56
2023-01-20T00:40:09.388Z,100639.47
2023-01-20T00:41:11.767Z,100643.97
2023-01-20T00:42:13.634Z,100641.31
2023-01-20T00:43:15.423Z,100646.78
2023-01-20T00:44:17.338Z,100649.44
2023-01-20T00:45:19.104Z,100650.88
2023-01-20T00:46:23.017Z,100644.38
2023-01-20T00:47:24.886Z,100653.97
2023-01-20T00:48:26.725Z,100643.00
2023-01-20T00:49:28.649Z,100656.75
2023-01-20T00:50:30.427Z,100648.75
2023-01-20T00:51:32.357Z,100650.59
2023-01-20T00:52:34.221Z,100659.56
2023-01-20T00:53:36.695Z,100657.72
2023-01-20T00:54:38.498Z,100658.72
2023-01-20T00:55:40.611Z,100642.56
2023-01-20T00:56:42.406Z,100657.03
2023-01-20T00:57:44.313Z,100657.03
2023-01-20T00:58:46.211Z,100660.69
2023-01-20T00:59:47.975Z,100658.00
2023-01-20T01:00:51.815Z,100646.09
2023-01-20T01:01:53.925Z,100658.19
2023-01-20T01:02:55.900Z,100661.66
2023-01-20T01:03:57.771Z,100662.66
2023-01-20T01:04:59.700Z,100664.34
2023-01-20T01:06:16.449Z,100660.69
2023-01-20T01:07:18.576Z,100665.03
2023-01-20T01:08:20.363Z,100659.00
2023-01-20T01:09:22.164Z,100666.19
2023-01-20T01:10:24.081Z,100658.97
2023-01-20T01:11:25.934Z,100673.59
2023-01-20T01:12:27.781Z,100671.91
2023-01-20T01:13:29.659Z,100666.59
2023-01-20T01:14:32.437Z,100670.25
2023-01-20T01:15:34.720Z,100679.22
2023-01-20T01:16:36.609Z,100679.22
2023-01-20T01:17:38.461Z,100684.56
2023-01-20T01:18:41.009Z,100669.34
2023-01-20T01:19:42.816Z,100685.53
2023-01-20T01:20:45.177Z,100671.31
2023-01-20T01:21:46.937Z,100680.03
2023-01-20T01:22:48.722Z,100695.34
2023-01-20T01:23:53.173Z,100691.13
2023-01-20T01:24:54.987Z,100701.66
2023-01-20T01:25:56.743Z,100702.53
2023-01-20T01:26:58.671Z,100698.25
2023-01-20T01:28:00.437Z,100707.25
2023-01-20T01:29:02.256Z,100705.44
2023-01-20T01:30:04.774Z,100693.75
2023-01-20T01:31:08.235Z,100706.44
2023-01-20T01:32:10.247Z,100708.13
2023-01-20T01:33:12.019Z,100708.13
2023-01-20T01:34:13.785Z,100712.59
2023-01-20T01:35:15.891Z,100708.25
2023-01-20T01:36:18.187Z,100714.44
2023-01-20T01:37:19.968Z,100699.09
2023-01-20T01:38:21.769Z,100706.69
2023-01-20T01:39:23.935Z,100705.28
2023-01-20T01:40:25.809Z,100717.38
2023-01-20T01:41:27.664Z,100717.38
2023-01-20T01:42:29.482Z,100714.72
2023-01-20T01:43:37.531Z,100713.03
2023-01-20T01:45:00.027Z,100713.84
2023-01-20T01:46:02.447Z,100720.47
2023-01-20T01:47:04.383Z,100726.09
2023-01-20T01:48:10.001Z,100724.41
2023-01-20T01:49:28.283Z,100716.94
2023-01-20T01:51:05.760Z,100716.66
2023-01-20T01:52:09.569Z,100733.41
2023-01-20T01:53:12.556Z,100736.47
2023-01-20T01:54:18.786Z,100735.06
2023-01-20T01:55:25.592Z,100716.75
2023-01-20T01:56:29.953Z,100742.38
2023-01-20T01:57:32.460Z,100735.75
2023-01-20T01:58:37.393Z,100737.31
2023-01-20T01:59:39.716Z,100740.09
2023-01-20T02:00:42.710Z,100751.63
2023-01-20T02:01:49.456Z,100744.59
2023-01-20T02:02:51.887Z,100738.97
2023-01-20T02:04:01.606Z,100735.91
2023-01-20T02:05:03.564Z,100744.59
2023-01-20T02:06:06.631Z,100741.22
2023-01-20T02:07:15.745Z,100741.34
2023-01-20T02:08:18.273Z,100735.91
2023-01-20T02:09:20.400Z,100741.22
2023-01-20T02:10:22.246Z,100740.53
2023-01-20T02:11:24.335Z,100741.50
2023-01-20T02:12:26.157Z,100735.31
2023-01-20T02:13:28.059Z,100743.31
2023-01-20T02:14:34.755Z,100735.00
2023-01-20T02:16:05.017Z,100740.97
2023-01-20T02:17:15.624Z,100746.28
2023-01-20T02:18:34.244Z,100741.94
2023-01-20T02:19:36.066Z,100749.78
2023-01-20T02:20:43.841Z,100754.56
2023-01-20T02:22:12.068Z,100742.66
2023-01-20T02:23:13.796Z,100747.13
2023-01-20T02:24:30.606Z,100746.56
2023-01-20T02:25:40.526Z,100750.22
2023-01-20T02:26:47.980Z,100745.97
2023-01-20T02:28:04.756Z,100757.50
2023-01-20T02:29:34.174Z,100754.56
2023-01-20T02:31:12.719Z,100753.31
2023-01-20T02:32:31.813Z,100762.28
2023-01-20T02:33:37.664Z,100758.94
2023-01-20T02:35:10.271Z,100764.25
2023-01-20T02:36:20.416Z,100763.56
2023-01-20T02:37:53.285Z,100766.94
2023-01-20T02:39:07.318Z,100766.22
2023-01-20T02:40:39.609Z,100769.00
2023-01-20T02:41:46.950Z,100771.56
2023-01-20T02:43:00.550Z,100785.13
2023-01-20T02:44:11.194Z,100780.78
2023-01-20T02:45:28.146Z,100789.75
2023-01-20T02:46:36.460Z,100783.00
2023-01-20T02:47:51.578Z,100782.19
2023-01-20T02:49:13.561Z,100790.03
2023-01-20T02:50:23.795Z,100791.72
2023-01-20T02:51:35.862Z,100791.88
2023-01-20T02:52:44.464Z,100787.91
2023-01-20T02:53:58.257Z,100789.84
2023-01-20T02:55:05.179Z,100795.63
2023-01-20T02:56:09.463Z,100804.63
2023-01-20T02:57:15.888Z,100801.25
2023-01-20T02:58:31.150Z,100798.84
2023-01-20T02:59:38.591Z,100805.88
2023-01-20T03:00:45.165Z,100813.59
2023-01-20T03:02:19.213Z,100811.38
2023-01-20T03:03:27.501Z,100809.69
2023-01-20T03:04:35.473Z,100810.66
2023-01-20T03:05:43.255Z,100812.78
2023-01-20T03:06:50.004Z,100817.25
2023-01-20T03:07:54.011Z,100818.22
2023-01-20T03:08:57.638Z,100821.03
2023-01-20T03:10:03.630Z,100827.34
2023-01-20T03:11:08.390Z,100826.50
2023-01-20T03:12:29.454Z,100826.38
2023-01-20T03:13:44.536Z,100835.91
2023-01-20T03:14:46.395Z,100831.56
2023-01-20T03:15:53.878Z,100840.69
2023-01-20T03:16:55.912Z,100838.13
2023-01-20T03:17:57.982Z,100844.44
2023-01-20T03:19:00.140Z,100829.94
2023-01-20T03:20:02.235Z,100841.94
2023-01-20T03:21:07.549Z,100818.78
2023-01-20T03:22:09.534Z,100840.25
2023-01-20T03:23:11.555Z,100846.41
2023-01-20T03:24:13.753Z,100853.69
2023-01-20T03:25:17.498Z,100845.94
2023-01-20T03:26:22.726Z,100851.13
2023-01-20T03:27:25.464Z,100853.69
2023-01-20T03:28:27.235Z,100858.16
2023-01-20T03:29:30.711Z,100859.03
2023-01-20T03:30:32.637Z,100862.66
2023-01-20T03:31:48.370Z,100860.72
2023-01-20T03:32:51.739Z,100860.72
2023-01-20T03:33:57.140Z,100864.34
2023-01-20T03:34:59.442Z,100869.69
2023-01-20T03:36:01.223Z,100861.94
2023-01-20T03:37:04.461Z,100864.63
2023-01-20T03:38:06.630Z,100864.88
2023-01-20T03:39:08.678Z,100865.59
2023-01-20T03:40:11.891Z,100865.88
2023-01-20T03:41:31.896Z,100870.94
2023-01-20T03:42:59.166Z,100871.09
2023-01-20T03:44:45.250Z,100872.53
2023-01-20T03:46:01.071Z,100881.50
2023-01-20T03:47:08.845Z,100882.63
2023-01-20T03:48:26.732Z,100877.41
2023-01-20T03:49:49.975Z,100881.34
2023-01-20T03:51:07.769Z,100874.44
2023-01-20T03:52:23.866Z,100869.34
2023-01-20T03:53:59.925Z,100875.13
2023-01-20T03:55:27.558Z,100883.47
2023-01-20T03:56:44.120Z,100879.50
2023-01-20T03:57:55.194Z,100875.81
2023-01-20T03:59:00.986Z,100894.94
2023-01-20T04:00:06.824Z,100878.13
2023-01-20T04:01:18.497Z,100885.63
2023-01-20T04:02:22.488Z,100886.59
2023-01-20T04:03:31.448Z,100886.75
2023-01-20T04:04:36.853Z,100868.66
2023-01-20T04:05:40.846Z,100893.06
2023-01-20T04:06:44.419Z,100887.00
2023-01-20T04:07:47.191Z,100889.66
2023-01-20T04:08:56.933Z,100888.94
2023-01-20T04:10:06.234Z,100893.31
2023-01-20T04:11:08.911Z,100898.50
2023-01-20T04:12:10.952Z,100891.13
2023-01-20T04:13:12.915Z,100902.28
2023-01-20T04:14:14.769Z,100907.72
2023-01-20T04:15:18.741Z,100899.88
2023-01-20T04:16:21.438Z,100907.88
2023-01-20T04:17:28.140Z,100910.53
2023-01-20T04:18:29.958Z,100904.34
2023-01-20T04:19:31.796Z,100906.91
2023-01-20T04:20:33.631Z,100907.00
2023-01-20T04:21:44.495Z,100912.47
2023-01-20T04:22:52.166Z,100907.88
2023-01-20T04:23:59.911Z,100912.22
2023-01-20T04:25:06.341Z,100909.69
2023-01-20T04:26:08.325Z,100910.53
2023-01-20T04:27:10.217Z,100912.34
2023-01-20T04:28:11.975Z,100912.47
2023-01-20T04:29:13.776Z,100916.09
2023-01-20T04:30:15.699Z,100917.94
2023-01-20T04:31:29.498Z,100914.41
2023-01-20T04:32:32.275Z,100920.44
2023-01-20T04:33:38.058Z,100920.00
2023-01-20T04:34:40.323Z,100921.44
2023-01-20T04:35:42.082Z,100925.06
2023-01-20T04:36:43.918Z,100920.72
2023-01-20T04:37:45.945Z,100921.69
2023-01-20T04:38:47.768Z,100926.19
2023-01-20T04:39:49.654Z,100927.03
2023-01-20T04:40:52.007Z,100930.66
2023-01-20T04:41:53.897Z,100918.97
2023-01-20T04:42:55.695Z,100936.84
2023-01-20T04:43:57.468Z,100921.38
2023-01-20T04:44:59.636Z,100928.16
2023-01-20T04:46:01.538Z,100934.31
2023-01-20T04:47:03.355Z,100919.69
2023-01-20T04:48:08.996Z,100937.94
2023-01-20T04:49:11.223Z,100939.63
2023-01-20T04:50:14.090Z,100936.66
2023-01-20T04:51:15.877Z,100932.88
2023-01-20T04:52:18.098Z,100945.09
2023-01-20T04:53:20.102Z,100945.09
2023-01-20T04:54:21.876Z,100943.53
2023-01-20T04:55:23.742Z,100948.75
2023-01-20T04:56:26.162Z,100946.09
2023-01-20T04:57:27.959Z,100944.41
2023-01-20T04:58:29.796Z,100946.19
2023-01-20T04:59:31.613Z,100950.69
2023-01-20T05:00:33.389Z,100945.38
2023-01-20T05:01:35.311Z,100952.50
2023-01-20T05:02:37.235Z,100938.00
2023-01-20T05:03:39.051Z,100954.44
2023-01-20T05:04:41.319Z,100910.22
2023-01-20T05:05:43.107Z,100950.81
2023-01-20T05:06:45.099Z,100957.13
2023-01-20T05:07:46.925Z,100956.41
2023-01-20T05:08:48.699Z,100959.78
2023-01-20T05:09:50.469Z,100962.44
2023-01-20T05:10:52.337Z,100957.38
2023-01-20T05:11:54.095Z,100931.28
2023-01-20T05:12:55.898Z,100960.75
2023-01-20T05:13:57.728Z,100962.59
2023-01-20T05:14:59.606Z,100970.69
2023-01-20T05:16:03.091Z,100960.91
2023-01-20T05:17:05.220Z,100956.41
2023-01-20T05:18:06.987Z,100965.38
2023-01-20T05:19:12.029Z,100948.44
2023-01-20T05:20:14.602Z,100967.06
2023-01-20T05:21:16.537Z,100967.06
2023-01-20T05:22:18.344Z,100963.66
2023-01-20T05:23:20.246Z,100978.69
2023-01-20T05:24:22.111Z,100977.97
2023-01-20T05:25:24.549Z,100973.88
2023-01-20T05:26:26.635Z,100977.13
2023-01-20T05:27:28.415Z,100980.78
2023-01-20T05:28:30.323Z,100982.59
2023-01-20T05:29:32.378Z,100976.53
2023-01-20T05:30:34.172Z,100980.88
2023-01-20T05:31:37.698Z,100981.88
2023-01-20T05:32:39.528Z,100972.91
2023-01-20T05:33:41.479Z,100988.88
2023-01-20T05:34:43.318Z,100985.34
2023-01-20T05:35:45.096Z,100971.72
2023-01-20T05:36:46.883Z,100981.88
2023-01-20T05:37:52.254Z,100995.19
2023-01-20T05:38:54.966Z,100988.16
2023-01-20T05:39:56.731Z,100991.66
2023-01-20T05:41:09.438Z,100995.19
2023-01-20T05:42:11.328Z,100994.22
2023-01-20T05:43:13.255Z,100990.84
2023-01-20T05:44:15.852Z,100994.47
2023-01-20T05:45:17.779Z,100992.78
2023-01-20T05:46:20.190Z,100996.28
2023-01-20T05:47:22.012Z,100999.78
2023-01-20T05:48:23.994Z,100998.09
2023-01-20T05:49:25.874Z,100992.78
2023-01-20T05:50:29.172Z,100984.56
2023-01-20T05:51:32.198Z,100995.56
2023-01-20T05:52:34.005Z,100990.22
2023-01-20T05:53:35.785Z,101000.88
2023-01-20T05:54:37.543Z,101000.06
2023-01-20T05:55:39.326Z,101005.38
2023-01-20T05:56:41.088Z,101000.88
2023-01-20T05:57:42.862Z,100994.00
2023-01-20T05:58:44.844Z,101002.81
2023-01-20T05:59:47.803Z,100997.75
2023-01-20T06:00:49.624Z,101010.81
2023-01-20T06:01:51.407Z,101006.47
2023-01-20T06:02:53.571Z,101010.97
2023-01-20T06:03:55.415Z,101008.28
2023-01-20T06:04:57.416Z,101014.59
2023-01-20T06:06:03.386Z,101007.56
2023-01-20T06:07:05.152Z,101026.09
2023-01-20T06:08:07.039Z,100987.69
2023-01-20T06:09:10.984Z,101021.63
2023-01-20T06:10:12.951Z,101008.06
2023-01-20T06:11:15.424Z,101008.06
2023-01-20T06:12:17.299Z,101012.75
2023-01-20T06:13:19.087Z,101001.88
2023-01-20T06:14:20.903Z,101030.09
2023-01-20T06:15:24.154Z,101017.72
2023-01-20T06:16:26.069Z,101025.34
2023-01-20T06:17:27.924Z,101023.41
2023-01-20T06:18:30.599Z,101025.94
2023-01-20T06:19:32.575Z,101034.66
2023-01-20T06:20:34.363Z,101034.41
2023-01-20T06:21:36.153Z,101027.63
2023-01-20T06:22:38.158Z,101039.47
2023-01-20T06:23:40.059Z,101041.91
2023-01-20T06:24:41.916Z,101028.00
2023-01-20T06:25:44.127Z,101037.03
2023-01-20T06:26:45.957Z,101042.25
2023-01-20T06:27:47.735Z,101041.03
2023-01-20T06:28:49.536Z,101048.91
2023-01-20T06:29:51.355Z,101054.00
2023-01-20T06:31:06.093Z,101058.19
2023-01-20T06:32:07.919Z,101057.69
2023-01-20T06:33:10.899Z,101063.75
2023-01-20T06:34:13.191Z,101063.63
2023-01-20T06:35:15.581Z,101059.03
2023-01-20T06:36:17.769Z,101067.63
2023-01-20T06:37:19.855Z,101071.13
2023-01-20T06:38:23.197Z,101072.72
2023-01-20T06:39:25.113Z,101070.75
2023-01-20T06:40:27.004Z,101075.84
2023-01-20T06:41:28.875Z,101081.03
2023-01-20T06:42:32.039Z,101076.66
2023-01-20T06:43:35.436Z,101083.44
2023-01-20T06:44:37.226Z,101083.19
2023-01-20T06:45:39.024Z,101086.56
2023-01-20T06:46:40.801Z,101092.66
2023-01-20T06:47:42.719Z,101089.72
2023-01-20T06:48:45.547Z,101088.75
2023-01-20T06:49:47.337Z,101087.53
2023-01-20T06:50:49.097Z,101097.22
2023-01-20T06:51:50.908Z,101094.56
2023-01-20T06:52:54.063Z,101088.97
2023-01-20T06:53:56.238Z,101102.16
2023-01-20T06:54:58.078Z,101106.44
2023-01-20T06:56:01.173Z,101109.09
2023-01-20T06:57:02.991Z,101111.50
2023-01-20T06:58:04.836Z,101117.69
2023-01-20T06:59:06.685Z,101114.06
2023-01-20T07:00:09.166Z,101122.91
2023-01-20T07:01:14.173Z,101102.88
2023-01-20T07:02:16.098Z,101119.16
2023-01-20T07:03:18.223Z,101124.47
2023-01-20T07:04:19.991Z,101124.34
2023-01-20T07:05:21.771Z,101128.84
2023-01-20T07:06:38.301Z,101135.72
2023-01-20T07:07:40.168Z,101133.66
2023-01-20T07:08:43.523Z,101128.44
2023-01-20T07:09:45.307Z,101136.44
2023-01-20T07:10:47.115Z,101140.97
2023-01-20T07:11:49.023Z,101137.44
2023-01-20T07:12:51.011Z,101136.00
2023-01-20T07:13:53.040Z,101133.56
2023-01-20T07:14:54.791Z,101148.09
2023-01-20T07:15:56.828Z,101144.25
2023-01-20T07:16:58.620Z,101146.41
2023-01-20T07:18:00.398Z,101148.09
2023-01-20T07:19:02.500Z,101148.09
2023-01-20T07:20:04.547Z,101151.75
2023-01-20T07:21:06.766Z,101156.25
2023-01-20T07:22:08.593Z,101156.25
2023-01-20T07:23:10.416Z,101156.25
2023-01-20T07:24:12.273Z,101159.91
2023-01-20T07:25:14.463Z,101160.72
2023-01-20T07:26:19.875Z,101163.53
2023-01-20T07:27:21.621Z,101174.06
2023-01-20T07:28:23.396Z,101175.91
2023-01-20T07:29:26.404Z,101172.38
2023-01-20T07:30:28.279Z,101174.47
2023-01-20T07:31:31.676Z,101178.69
2023-01-20T07:32:33.584Z,101185.72
2023-01-20T07:33:36.317Z,101188.53
2023-01-20T07:34:38.184Z,101189.38
2023-01-20T07:35:39.952Z,101189.38
2023-01-20T07:36:41.706Z,101192.03
2023-01-20T07:37:43.827Z,101190.34
2023-01-20T07:38:50.289Z,101187.81
2023-01-20T07:39:52.086Z,101193.00
2023-01-20T07:40:57.615Z,101192.28
2023-01-20T07:41:59.491Z,101192.19
2023-01-20T07:43:04.195Z,101183.06
2023-01-20T07:44:06.001Z,101193.25
2023-01-20T07:45:08.269Z,101196.78
2023-01-20T07:46:10.357Z,101195.22
2023-01-20T07:47:12.156Z,101206.59
2023-01-20T07:48:13.953Z,101203.94
2023-01-20T07:49:15.827Z,101201.38
2023-01-20T07:50:17.822Z,101196.66
2023-01-20T07:51:19.751Z,101206.88
2023-01-20T07:52:21.559Z,101192.31
2023-01-20T07:53:23.366Z,101207.84
2023-01-20T07:54:25.163Z,101212.28
2023-01-20T07:55:27.044Z,101209.75
2023-01-20T07:56:29.660Z,101217.75
2023-01-20T07:57:31.508Z,101214.22
2023-01-20T07:58:34.024Z,101216.06
2023-01-20T07:59:35.865Z,101217.88
2023-01-20T08:00:37.859Z,101218.00
2023-01-20T08:01:39.832Z,101223.34
2023-01-20T08:02:41.801Z,101223.19
2023-01-20T08:03:44.196Z,101226.00
2023-01-20T08:04:46.054Z,101222.47
2023-01-20T08:05:48.003Z,101230.50
2023-01-20T08:06:50.181Z,101220.31
2023-01-20T08:07:52.574Z,101233.28
2023-01-20T08:08:58.865Z,101231.59
2023-01-20T08:10:00.697Z,101240.34
2023-01-20T08:11:02.964Z,101233.28
2023-01-20T08:12:05.122Z,101237.78
2023-01-20T08:13:06.931Z,101245.78
2023-01-20T08:14:08.765Z,101243.25
2023-01-20T08:15:11.276Z,101241.56
2023-01-20T08:16:15.290Z,101246.88
2023-01-20T08:17:17.076Z,101245.91
2023-01-20T08:18:18.985Z,101243.75
2023-01-20T08:19:20.847Z,101251.38
2023-01-20T08:20:23.405Z,101253.19
2023-01-20T08:21:28.197Z,101247.50
2023-01-20T08:22:30.063Z,101254.91
2023-01-20T08:23:32.331Z,101255.88
2023-01-20T08:24:34.142Z,101258.53
2023-01-20T08:25:36.047Z,101255.00
2023-01-20T08:26:37.891Z,101243.13
2023-01-20T08:27:39.663Z,101257.66
2023-01-20T08:28:41.439Z,101255.16
2023-01-20T08:29:43.366Z,101255.16
2023-01-20T08:30:45.298Z,101244.94
2023-01-20T08:31:47.328Z,101259.50
2023-01-20T08:32:49.332Z,101253.31
2023-01-20T08:33:56.149Z,101258.78
2023-01-20T08:34:58.035Z,101241.78
2023-01-20T08:36:12.018Z,101270.19
2023-01-20T08:37:13.814Z,101267.25
2023-01-20T08:38:15.622Z,101272.84
2023-01-20T08:39:19.081Z,101280.84
2023-01-20T08:40:21.157Z,101258.66
2023-01-20T08:41:29.369Z,101287.28
2023-01-20T08:42:31.687Z,101264.59
2023-01-20T08:43:33.808Z,101288.13
2023-01-20T08:44:35.610Z,101287.16
2023-01-20T08:45:37.443Z,101288.13
2023-01-20T08:46:41.880Z,101288.13
2023-01-20T08:47:46.024Z,101266.06
2023-01-20T08:48:49.219Z,101286.44
2023-01-20T08:49:53.623Z,101292.75
2023-01-20T08:50:55.960Z,101296.13
2023-01-20T08:51:57.793Z,101274.06
2023-01-20T08:52:59.715Z,101282.78
2023-01-20T08:54:02.246Z,101275.97
2023-01-20T08:55:04.523Z,101285.72
2023-01-20T08:56:06.879Z,101278.53
2023-01-20T08:57:08.778Z,101281.31
2023-01-20T08:58:10.619Z,101287.41
2023-01-20T08:59:12.481Z,101281.22
2023-01-20T09:00:15.023Z,101280.38
2023-01-20T09:01:20.353Z,101279.63
2023-01-20T09:02:25.877Z,101278.53
2023-01-20T09:03:28.095Z,101279.41
2023-01-20T09:04:30.840Z,101284.84
2023-01-20T09:05:36.712Z,101285.94
2023-01-20T09:06:44.669Z,101280.47
2023-01-20T09:07:46.534Z,101296.38
2023-01-20T09:08:49.585Z,101291.97
2023-01-20T09:09:51.465Z,101298.28
2023-01-20T09:10:54.375Z,101298.28
2023-01-20T09:11:56.275Z,101304.59
2023-01-20T09:12:58.234Z,101310.91
2023-01-20T09:14:00.113Z,101310.91
2023-01-20T09:15:04.843Z,101306.69
2023-01-20T09:16:07.324Z,101309.22
2023-01-20T09:17:09.134Z,101277.94
2023-01-20T09:18:10.893Z,101319.88
2023-01-20T09:19:12.872Z,101320.03
2023-01-20T09:20:14.831Z,101314.69
2023-01-20T09:21:16.605Z,101304.63
2023-01-20T09:22:18.443Z,101316.50
2023-01-20T09:23:20.258Z,101319.28
2023-01-20T09:24:22.192Z,101324.63
2023-01-20T09:25:23.982Z,101328.13
2023-01-20T09:26:41.244Z,101317.59
2023-01-20T09:27:43.135Z,101326.09
2023-01-20T09:28:45.957Z,101322.78
2023-01-20T09:29:47.792Z,101323.75
2023-01-20T09:30:49.849Z,101323.75
2023-01-20T09:31:58.306Z,101324.75
2023-01-20T09:33:00.334Z,101330.78
2023-01-20T09:34:02.428Z,101330.06
2023-01-20T09:35:05.130Z,101328.38
2023-01-20T09:36:09.576Z,101336.38
2023-01-20T09:37:29.948Z,101326.56
2023-01-20T09:38:50.409Z,101333.34
2023-01-20T09:40:10.777Z,101330.78
2023-01-20T09:41:57.411Z,101335.88
2023-01-20T09:43:21.000Z,101331.06
2023-01-20T09:44:41.317Z,101331.06
2023-01-20T09:46:03.763Z,101334.81
2023-01-20T09:47:21.193Z,101335.88
2023-01-20T09:48:48.927Z,101337.84
2023-01-20T09:50:36.296Z,101326.19
2023-01-20T09:52:18.165Z,101341.13
2023-01-20T09:53:50.672Z,101347.19
2023-01-20T09:55:02.185Z,101352.88
2023-01-20T09:56:17.386Z,101356.75
2023-01-20T09:57:22.800Z,101355.53
2023-01-20T09:58:48.743Z,101361.50
2023-01-20T10:00:17.441Z,101374.34
2023-01-20T10:01:40.657Z,101371.78
2023-01-20T10:02:47.896Z,101378.22
2023-01-20T10:04:27.104Z,101369.25
2023-01-20T10:05:37.187Z,101379.91
2023-01-20T10:06:46.220Z,101382.81
2023-01-20T10:08:30.529Z,101377.59
2023-01-20T10:09:54.602Z,101380.88
2023-01-20T10:11:05.730Z,101371.69
2023-01-20T10:12:15.520Z,101391.66
2023-01-20T10:13:33.846Z,101377.00
2023-01-20T10:14:40.859Z,101373.81
2023-01-20T10:15:50.757Z,101390.44
2023-01-20T10:17:01.231Z,101381.72
2023-01-20T10:18:06.127Z,101390.22
2023-01-20T10:19:22.140Z,101385.13
2023-01-20T10:20:35.255Z,101386.81
2023-01-20T10:21:43.894Z,101394.56
2023-01-20T10:22:52.673Z,101383.19
2023-01-20T10:24:00.997Z,101389.38
2023-01-20T10:25:25.689Z,101394.34
2023-01-20T10:26:49.406Z,101392.38
2023-01-20T10:28:04.342Z,101399.56
2023-01-20T10:29:13.122Z,101409.50
2023-01-20T10:30:15.523Z,101402.47
2023-01-20T10:31:25.538Z,101404.50
2023-01-20T10:33:08.411Z,101401.25
2023-01-20T10:34:15.904Z,101401.25
2023-01-20T10:35:22.778Z,101388.50
2023-01-20T10:36:29.868Z,101394.47
2023-01-20T10:37:32.544Z,101398.94
2023-01-20T10:38:49.639Z,101403.44
2023-01-20T10:40:14.116Z,101409.50
2023-01-20T10:41:31.144Z,101400.28
2023-01-20T10:42:33.740Z,101404.03
2023-01-20T10:43:36.000Z,101406.94
2023-01-20T10:44:37.908Z,101399.19
2023-01-20T10:46:01.924Z,101404.50
2023-01-20T10:47:18.053Z,101405.97
2023-01-20T10:48:57.038Z,101410.09
2023-01-20T10:50:27.983Z,101416.88
2023-01-20T10:51:35.866Z,101421.50
2023-01-20T10:52:55.024Z,101411.06
2023-01-20T10:54:05.537Z,101412.91
2023-01-20T10:55:43.367Z,101414.59
2023-01-20T10:56:53.713Z,101418.81
2023-01-20T10:58:23.196Z,101417.03
2023-01-20T10:59:36.877Z,101418.00
2023-01-20T11:00:39.788Z,101404.41
2023-01-20T11:01:45.304Z,101420.03
2023-01-20T11:02:49.308Z,101423.69
2023-01-20T11:03:51.279Z,101421.16
2023-01-20T11:05:10.092Z,101423.91
2023-01-20T11:06:19.971Z,101423.69
2023-01-20T11:07:21.881Z,101430.72
2023-01-20T11:08:27.330Z,101430.94
2023-01-20T11:09:41.857Z,101436.19
2023-01-20T11:10:44.845Z,101427.22
2023-01-20T11:11:47.582Z,101438.84
2023-01-20T11:12:53.641Z,101430.94
2023-01-20T11:13:57.549Z,101432.66
2023-01-20T11:15:00.807Z,101430.94
2023-01-20T11:16:14.414Z,101435.44
2023-01-20T11:17:20.428Z,101428.03
2023-01-20T11:18:30.630Z,101430.72
2023-01-20T11:19:54.468Z,101433.88
2023-01-20T11:21:08.870Z,101432.91
2023-01-20T11:22:13.483Z,101433.88
2023-01-20T11:23:47.988Z,101441.53
2023-01-20T11:24:54.952Z,101436.28
2023-01-20T11:25:58.927Z,101437.25
2023-01-20T11:27:06.362Z,101437.50
2023-01-20T11:28:18.267Z,101431.81
2023-01-20T11:29:19.991Z,101445.41
2023-01-20T11:30:31.546Z,101438.72
2023-01-20T11:31:40.202Z,101437.50
2023-01-20T11:32:42.227Z,101433.88
2023-01-20T11:34:18.924Z,101437.41
2023-01-20T11:35:25.786Z,101437.03
2023-01-20T11:36:29.037Z,101432.31
2023-01-20T11:37:39.313Z,101457.78
2023-01-20T11:38:45.181Z,101430.72
2023-01-20T11:39:49.771Z,101453.50
2023-01-20T11:40:53.172Z,101452.69
2023-01-20T11:42:22.247Z,101442.09
2023-01-20T11:43:40.742Z,101452.31
2023-01-20T11:44:49.419Z,101453.16
2023-01-20T11:45:52.680Z,101435.31
2023-01-20T11:46:55.261Z,101457.88
2023-01-20T11:48:16.314Z,101466.84
2023-01-20T11:49:22.337Z,101464.91
2023-01-20T11:50:54.373Z,101457.53
2023-01-20T11:51:57.471Z,101471.72
2023-01-20T11:53:21.046Z,101474.38
2023-01-20T11:54:29.203Z,101468.22
2023-01-20T11:55:31.055Z,101478.97
2023-01-20T11:56:42.182Z,101479.34
2023-01-20T11:57:57.531Z,101478.25
2023-01-20T11:59:01.988Z,101475.09
2023-01-20T12:00:24.788Z,101476.53
2023-01-20T12:01:29.368Z,101476.44
2023-01-20T12:02:31.356Z,101488.91
2023-01-20T12:04:00.716Z,101482.75
2023-01-20T12:05:44.018Z,101486.53
2023-01-20T12:06:53.634Z,101483.97
2023-01-20T12:07:56.680Z,101490.38
2023-01-20T12:09:04.378Z,101487.13
2023-01-20T12:10:18.367Z,101495.13
2023-01-20T12:11:41.932Z,101492.31
2023-01-20T12:12:51.342Z,101483.97
2023-01-20T12:14:20.946Z,101496.81
2023-01-20T12:15:25.606Z,101499.34
2023-01-20T12:16:30.930Z,101496.09
2023-01-20T12:17:32.713Z,101512.09
2023-01-20T12:18:50.369Z,101504.66
2023-01-20T12:20:28.437Z,101517.19
2023-01-20T12:21:37.276Z,101520.69
2023-01-20T12:22:42.403Z,101515.59
2023-01-20T12:23:52.616Z,101518.50
2023-01-20T12:25:32.266Z,101533.06
2023-01-20T12:26:35.889Z,101527.88
2023-01-20T12:27:46.777Z,101529.91
2023-01-20T12:28:51.662Z,101533.53
2023-01-20T12:29:58.719Z,101533.78
2023-01-20T12:31:02.410Z,101523.97
2023-01-20T12:32:04.404Z,101528.56
2023-01-20T12:33:20.781Z,101533.03
2023-01-20T12:34:31.061Z,101517.50
2023-01-20T12:35:46.519Z,101529.53
2023-01-20T12:37:12.552Z,101521.16
2023-01-20T12:38:19.707Z,101527.25
2023-01-20T12:40:07.479Z,101530.78